createdAt,value
2023-02-17T00:01:22.445Z,190.63
2023-02-17T00:03:51.054Z,184.52
2023-02-17T00:06:21.466Z,180.77
2023-02-17T00:08:49.208Z,188.55
2023-02-17T00:11:17.625Z,180.45
2023-02-17T00:13:45.812Z,191.73
2023-02-17T00:16:17.717Z,184.13
2023-02-17T00:21:18.076Z,182.85
2023-02-17T00:23:47.127Z,183.13
2023-02-17T00:26:14.880Z,188.13
2023-02-17T00:28:44.098Z,192.50
2023-02-17T00:31:16.990Z,194.40
2023-02-17T00:33:44.377Z,187.13
2023-02-17T00:36:14.884Z,184.57
2023-02-17T00:38:42.199Z,188.82
2023-02-17T00:41:09.619Z,183.65
2023-02-17T00:43:37.006Z,190.98
2023-02-17T00:46:04.855Z,175.48
2023-02-17T00:48:32.684Z,194.95
2023-02-17T00:51:00.253Z,185.48
2023-02-17T00:53:28.142Z,192.23
2023-02-17T00:55:55.833Z,191.73
2023-02-17T00:58:23.517Z,194.82
2023-02-17T01:00:51.055Z,191.80
2023-02-17T01:03:19.238Z,198.23
2023-02-17T01:05:48.865Z,204.05
2023-02-17T01:08:19.136Z,190.45
2023-02-17T01:10:48.184Z,196.05
2023-02-17T01:13:17.336Z,191.98
2023-02-17T01:15:48.799Z,190.88
2023-02-17T01:18:18.041Z,192.32
2023-02-17T01:20:45.829Z,194.52
2023-02-17T01:23:13.952Z,200.38
2023-02-17T01:25:46.391Z,189.52
2023-02-17T01:28:20.517Z,185.82
2023-02-17T01:30:48.540Z,198.13
2023-02-17T01:33:16.138Z,191.93
2023-02-17T01:35:43.583Z,188.93
2023-02-17T01:38:16.051Z,190.35
2023-02-17T01:40:48.003Z,186.23
2023-02-17T01:43:17.591Z,180.15
2023-02-17T01:45:59.632Z,172.50
2023-02-17T01:51:11.054Z,163.82
2023-02-17T01:53:48.486Z,170.60
2023-02-17T01:56:17.370Z,161.98
2023-02-17T01:58:56.452Z,160.10
2023-02-17T02:01:24.042Z,165.57
2023-02-17T02:03:53.307Z,169.45
2023-02-17T02:06:26.072Z,172.25
2023-02-17T02:08:59.357Z,167.43
2023-02-17T02:11:33.105Z,172.23
2023-02-17T02:14:01.108Z,169.25
2023-02-17T02:16:37.453Z,171.85
2023-02-17T02:19:20.030Z,171.60
2023-02-17T02:22:10.932Z,175.43
2023-02-17T02:25:08.285Z,163.02
2023-02-17T02:27:55.846Z,178.80
2023-02-17T02:30:51.406Z,164.43
2023-02-17T02:33:28.852Z,176.00
2023-02-17T02:36:33.118Z,176.27
2023-02-17T02:39:17.573Z,174.88
2023-02-17T02:41:54.202Z,181.40
2023-02-17T02:44:22.165Z,179.20
2023-02-17T02:47:05.191Z,171.50
2023-02-17T02:49:36.580Z,170.32
2023-02-17T02:52:17.328Z,168.35
2023-02-17T02:55:11.049Z,164.38
2023-02-17T02:57:58.536Z,169.15
2023-02-17T03:00:39.053Z,170.68
2023-02-17T03:03:22.445Z,164.38
2023-02-17T03:06:10.853Z,169.85
2023-02-17T03:08:53.393Z,163.45
2023-02-17T03:11:34.718Z,169.23
2023-02-17T03:14:09.770Z,167.57
2023-02-17T03:16:39.174Z,167.98
2023-02-17T03:19:07.490Z,162.13
2023-02-17T03:21:39.460Z,167.93
2023-02-17T03:26:34.374Z,151.48
2023-02-17T03:29:01.817Z,156.18
2023-02-17T03:31:31.029Z,150.05
2023-02-17T03:33:59.407Z,145.27
2023-02-17T03:36:27.326Z,133.38
2023-02-17T03:38:54.625Z,130.18
2023-02-17T03:41:40.278Z,118.78
2023-02-17T03:44:07.611Z,121.85
2023-02-17T03:46:35.232Z,117.05
2023-02-17T03:49:02.540Z,110.88
2023-02-17T03:51:29.895Z,115.40
2023-02-17T03:53:57.224Z,102.82
2023-02-17T03:56:24.604Z,102.60
2023-02-17T03:58:51.962Z,104.05
2023-02-17T04:01:19.771Z,110.45
2023-02-17T04:03:47.292Z,104.80
2023-02-17T04:06:15.023Z,100.68
2023-02-17T04:08:42.472Z,102.72
2023-02-17T04:11:11.006Z,104.85
2023-02-17T04:13:38.916Z,98.43
2023-02-17T04:16:10.090Z,102.30
2023-02-17T04:18:38.148Z,105.13
2023-02-17T04:21:06.404Z,107.97
2023-02-17T04:23:37.559Z,104.60
2023-02-17T04:26:07.200Z,96.97
2023-02-17T04:28:37.897Z,98.07
2023-02-17T04:31:05.638Z,94.72
2023-02-17T04:33:33.679Z,100.65
2023-02-17T04:36:01.421Z,103.45
2023-02-17T04:38:31.437Z,96.10
2023-02-17T04:41:00.353Z,98.32
2023-02-17T04:43:28.680Z,97.05
2023-02-17T04:45:56.633Z,96.40
2023-02-17T04:48:24.978Z,92.88
2023-02-17T04:50:52.688Z,99.45
2023-02-17T04:53:20.367Z,92.80
2023-02-17T04:55:50.632Z,89.88
2023-02-17T04:58:18.473Z,91.63
2023-02-17T05:00:53.182Z,94.60
2023-02-17T05:03:20.654Z,91.40
2023-02-17T05:05:48.030Z,88.68
2023-02-17T05:08:15.868Z,89.30
2023-02-17T05:10:43.204Z,90.70
2023-02-17T05:13:10.823Z,83.45
2023-02-17T05:15:38.292Z,83.65
2023-02-17T05:18:06.139Z,84.47
2023-02-17T05:20:33.506Z,84.43
2023-02-17T05:23:01.030Z,80.63
2023-02-17T05:25:28.565Z,80.88
2023-02-17T05:27:55.914Z,80.85
2023-02-17T05:30:23.779Z,77.68
2023-02-17T05:32:51.190Z,79.53
2023-02-17T05:35:18.646Z,82.32
2023-02-17T05:37:46.026Z,81.68
2023-02-17T05:40:15.345Z,83.03
2023-02-17T05:42:42.675Z,80.35
2023-02-17T05:45:10.337Z,75.55
2023-02-17T05:47:37.620Z,80.10
2023-02-17T05:50:05.557Z,82.53
2023-02-17T05:52:32.858Z,70.93
2023-02-17T05:55:00.277Z,81.88
2023-02-17T05:57:30.850Z,74.65
2023-02-17T05:59:58.378Z,76.55
2023-02-17T06:02:25.868Z,80.68
2023-02-17T06:04:53.314Z,77.90
2023-02-17T06:07:20.772Z,80.85
2023-02-17T06:09:48.106Z,89.32
2023-02-17T06:12:15.897Z,86.97
2023-02-17T06:14:43.245Z,84.72
2023-02-17T06:17:10.935Z,88.80
2023-02-17T06:19:38.256Z,85.55
2023-02-17T06:22:05.641Z,97.68
2023-02-17T06:24:33.067Z,95.07
2023-02-17T06:27:01.405Z,96.32
2023-02-17T06:29:28.875Z,93.80
2023-02-17T06:31:57.540Z,98.00
2023-02-17T06:34:25.111Z,96.22
2023-02-17T06:36:52.475Z,98.30
2023-02-17T06:39:19.843Z,85.97
2023-02-17T06:41:47.255Z,94.03
2023-02-17T06:44:14.609Z,94.47
2023-02-17T06:46:42.006Z,100.22
2023-02-17T06:49:09.336Z,92.78
2023-02-17T06:51:36.700Z,90.32
2023-02-17T06:54:04.216Z,93.05
2023-02-17T06:56:31.567Z,93.13
2023-02-17T06:58:58.938Z,100.53
2023-02-17T07:01:26.527Z,104.18
2023-02-17T07:03:54.797Z,91.10
2023-02-17T07:06:23.574Z,97.40
2023-02-17T07:08:51.571Z,93.32
2023-02-17T07:11:19.345Z,95.55
2023-02-17T07:13:47.210Z,91.32
2023-02-17T07:16:15.441Z,95.40
2023-02-17T07:18:42.837Z,96.18
2023-02-17T07:21:10.879Z,91.88
2023-02-17T07:23:39.550Z,94.60
2023-02-17T07:26:09.716Z,91.65
2023-02-17T07:28:38.097Z,91.05
2023-02-17T07:31:10.965Z,87.55
2023-02-17T07:33:39.090Z,86.63
2023-02-17T07:36:12.088Z,86.07
2023-02-17T07:38:40.413Z,87.63
2023-02-17T07:41:14.043Z,88.63
2023-02-17T07:43:41.716Z,86.32
2023-02-17T07:46:10.879Z,86.25
2023-02-17T07:48:39.160Z,87.05
2023-02-17T07:51:15.184Z,85.38
2023-02-17T07:53:43.308Z,91.93
2023-02-17T07:56:13.894Z,84.28
2023-02-17T07:58:42.770Z,89.78
2023-02-17T08:01:14.037Z,98.53
2023-02-17T08:03:42.972Z,105.03
2023-02-17T08:06:15.961Z,132.43
2023-02-17T08:09:02.407Z,128.00
2023-02-17T08:11:49.850Z,122.82
2023-02-17T08:14:18.110Z,122.97
2023-02-17T08:16:45.582Z,133.13
2023-02-17T08:19:12.939Z,145.00
2023-02-17T08:21:40.375Z,142.95
2023-02-17T08:24:07.926Z,157.43
2023-02-17T08:26:35.257Z,152.43
2023-02-17T08:29:02.849Z,152.15
2023-02-17T08:31:35.745Z,156.43
2023-02-17T08:34:06.233Z,158.15
2023-02-17T08:36:33.847Z,162.82
2023-02-17T08:39:01.540Z,182.45
2023-02-17T08:41:34.713Z,170.15
2023-02-17T08:44:12.276Z,165.80
2023-02-17T08:46:40.793Z,163.88
2023-02-17T08:49:08.881Z,162.55
2023-02-17T08:51:37.302Z,147.63
2023-02-17T08:54:07.098Z,127.95
2023-02-17T08:56:35.038Z,133.40
2023-02-17T08:59:02.891Z,133.20
2023-02-17T09:01:30.998Z,129.05
2023-02-17T09:04:00.746Z,134.07
2023-02-17T09:06:35.541Z,123.13
2023-02-17T09:09:05.019Z,144.65
2023-02-17T09:11:32.585Z,147.13
2023-02-17T09:14:00.090Z,153.20
2023-02-17T09:16:27.507Z,154.90
2023-02-17T09:18:57.824Z,151.93
2023-02-17T09:21:25.293Z,167.25
2023-02-17T09:23:53.907Z,172.10
2023-02-17T09:26:22.250Z,163.63
2023-02-17T09:28:49.772Z,164.95
2023-02-17T09:31:22.946Z,165.93
2023-02-17T09:33:51.252Z,164.65
2023-02-17T09:36:25.350Z,163.10
2023-02-17T09:38:53.253Z,151.95
2023-02-17T09:41:25.710Z,154.05
2023-02-17T09:43:55.498Z,154.57
2023-02-17T09:46:33.793Z,149.52
2023-02-17T09:49:08.793Z,161.45
2023-02-17T09:51:42.588Z,152.95
2023-02-17T09:54:22.881Z,146.88
2023-02-17T09:56:53.183Z,143.90
2023-02-17T09:59:29.405Z,143.13
2023-02-17T10:01:57.600Z,136.20
2023-02-17T10:04:34.237Z,143.55
2023-02-17T10:07:13.692Z,148.13
2023-02-17T10:09:55.953Z,151.73
2023-02-17T10:12:37.706Z,156.13
2023-02-17T10:15:13.390Z,167.95
2023-02-17T10:18:17.138Z,162.35
2023-02-17T10:21:13.244Z,173.73
2023-02-17T10:23:40.756Z,173.48
2023-02-17T10:26:14.247Z,174.43
2023-02-17T10:29:05.763Z,183.68
2023-02-17T10:31:52.414Z,184.30
2023-02-17T10:34:22.902Z,177.93
2023-02-17T10:36:59.145Z,175.25
2023-02-17T10:39:44.985Z,181.90
2023-02-17T10:42:24.510Z,178.63
2023-02-17T10:44:53.769Z,169.90
2023-02-17T10:47:22.214Z,176.35
2023-02-17T10:49:54.708Z,178.93
2023-02-17T10:52:25.743Z,177.13
2023-02-17T10:55:01.927Z,182.35
2023-02-17T10:57:35.409Z,181.68
2023-02-17T11:00:05.283Z,196.60
2023-02-17T11:02:40.131Z,184.57
2023-02-17T11:05:09.025Z,182.63
2023-02-17T11:07:41.804Z,170.23
2023-02-17T11:10:41.902Z,172.00
2023-02-17T11:13:30.932Z,173.68
2023-02-17T11:15:58.858Z,173.82
2023-02-17T11:18:31.378Z,170.82
2023-02-17T11:21:08.943Z,171.70
2023-02-17T11:23:46.677Z,171.88
2023-02-17T11:26:23.318Z,167.02
2023-02-17T11:28:51.335Z,171.35
2023-02-17T11:31:31.728Z,172.07
2023-02-17T11:33:59.134Z,167.55
2023-02-17T11:36:32.704Z,163.40
2023-02-17T11:39:13.580Z,160.20
2023-02-17T11:41:41.076Z,163.20
2023-02-17T11:44:09.990Z,161.23
2023-02-17T11:46:44.424Z,160.57
2023-02-17T11:49:37.641Z,155.90
2023-02-17T11:52:18.019Z,162.88
2023-02-17T11:54:58.104Z,158.30
2023-02-17T11:57:37.812Z,164.35
2023-02-17T12:00:22.611Z,158.65
2023-02-17T12:03:18.244Z,151.75
2023-02-17T12:06:09.132Z,152.15
2023-02-17T12:08:48.310Z,151.90
2023-02-17T12:11:49.496Z,146.20
2023-02-17T12:14:50.644Z,145.75
2023-02-17T12:17:36.384Z,141.63
2023-02-17T12:20:20.344Z,135.95
2023-02-17T12:23:15.901Z,141.38
2023-02-17T12:25:49.160Z,130.15
2023-02-17T12:28:30.630Z,133.77
2023-02-17T12:31:11.171Z,128.43
2023-02-17T12:33:56.612Z,121.88
2023-02-17T12:36:30.471Z,121.30
2023-02-17T12:39:02.821Z,121.57
2023-02-17T12:41:42.145Z,115.10
2023-02-17T12:44:20.992Z,195.40
2023-02-17T12:46:55.840Z,108.57
2023-02-17T12:49:30.167Z,100.97
2023-02-17T12:52:06.877Z,95.07
2023-02-17T12:54:56.819Z,94.28
2023-02-17T12:57:32.677Z,93.00
2023-02-17T13:00:01.565Z,88.55
2023-02-17T13:02:30.799Z,93.35
2023-02-17T13:05:03.448Z,95.80
2023-02-17T13:07:39.733Z,92.40
2023-02-17T13:10:17.911Z,91.05
2023-02-17T13:12:56.209Z,84.75
2023-02-17T13:15:44.774Z,91.38
2023-02-17T13:18:27.868Z,70.28
2023-02-17T13:21:17.032Z,72.72
2023-02-17T13:23:57.923Z,65.72
2023-02-17T13:26:34.712Z,62.20
2023-02-17T13:29:08.373Z,64.97
2023-02-17T13:31:55.292Z,64.95
2023-02-17T13:34:44.238Z,64.25
2023-02-17T13:37:41.038Z,60.92
2023-02-17T13:40:20.519Z,64.78
2023-02-17T13:42:56.605Z,71.38
2023-02-17T13:45:28.418Z,64.30
2023-02-17T13:47:58.634Z,63.95
2023-02-17T13:50:33.806Z,60.67
2023-02-17T13:53:33.970Z,58.90
2023-02-17T13:56:05.570Z,59.60
2023-02-17T13:58:39.940Z,55.85
2023-02-17T14:01:14.993Z,55.70
2023-02-17T14:03:47.645Z,53.00
2023-02-17T14:06:40.505Z,57.08
2023-02-17T14:09:31.809Z,41.40
2023-02-17T14:12:02.786Z,41.60
2023-02-17T14:14:38.055Z,36.25
2023-02-17T14:17:09.160Z,22.75
2023-02-17T14:20:02.530Z,22.53
2023-02-17T14:22:32.421Z,25.67
2023-02-17T14:25:15.055Z,23.95
2023-02-17T14:27:43.004Z,29.20
2023-02-17T14:30:14.401Z,28.05
2023-02-17T14:32:41.753Z,25.38
2023-02-17T14:35:32.581Z,25.20
2023-02-17T14:38:09.989Z,24.67
2023-02-17T14:40:39.922Z,25.13
2023-02-17T14:43:07.438Z,25.52
2023-02-17T14:45:34.710Z,25.67
2023-02-17T14:48:05.169Z,24.35
2023-02-17T14:50:42.283Z,23.92
2023-02-17T14:53:32.831Z,22.95
2023-02-17T14:56:10.473Z,26.33
2023-02-17T14:58:37.841Z,25.13
2023-02-17T15:01:05.778Z,25.05
2023-02-17T15:03:33.080Z,22.50
2023-02-17T15:06:01.114Z,26.23
2023-02-17T15:08:33.125Z,24.58
2023-02-17T15:11:01.472Z,24.13
2023-02-17T15:13:28.916Z,22.00
2023-02-17T15:15:56.251Z,21.85
2023-02-17T15:18:23.716Z,30.40
2023-02-17T15:20:51.874Z,22.58
2023-02-17T15:23:22.661Z,28.60
2023-02-17T15:25:50.122Z,27.05
2023-02-17T15:28:19.813Z,26.52
2023-02-17T15:30:55.807Z,23.08
2023-02-17T15:33:24.699Z,27.88
2023-02-17T15:35:54.823Z,22.20
2023-02-17T15:38:23.298Z,24.63
2023-02-17T15:40:51.062Z,23.08
2023-02-17T15:43:21.889Z,26.98
2023-02-17T15:45:49.470Z,25.40
2023-02-17T15:48:27.368Z,25.13
2023-02-17T15:50:54.711Z,24.58
2023-02-17T15:53:22.215Z,27.27
2023-02-17T15:55:50.497Z,25.70
2023-02-17T15:58:21.213Z,31.20
2023-02-17T16:00:50.339Z,24.45
2023-02-17T16:03:18.538Z,23.15
2023-02-17T16:05:45.947Z,22.13
2023-02-17T16:08:13.484Z,23.45
2023-02-17T16:10:42.536Z,23.60
2023-02-17T16:13:14.825Z,23.70
2023-02-17T16:15:42.830Z,26.15
2023-02-17T16:18:19.905Z,25.75
2023-02-17T16:20:47.493Z,23.88
2023-02-17T16:23:14.945Z,25.13
2023-02-17T16:25:44.514Z,30.63
2023-02-17T16:28:18.180Z,28.85
2023-02-17T16:30:49.698Z,25.45
2023-02-17T16:33:17.670Z,27.20
2023-02-17T16:35:45.504Z,27.50
2023-02-17T16:38:22.320Z,25.40
2023-02-17T16:40:52.692Z,26.58
2023-02-17T16:43:26.841Z,29.48
2023-02-17T16:46:00.641Z,30.17
2023-02-17T16:48:31.763Z,29.85
2023-02-17T16:50:59.396Z,31.73
2023-02-17T16:53:26.870Z,31.42
2023-02-17T16:55:55.467Z,32.40
2023-02-17T16:58:25.464Z,29.52
2023-02-17T17:00:55.081Z,34.15
2023-02-17T17:03:22.738Z,42.85
2023-02-17T17:05:52.585Z,42.63
2023-02-17T17:08:21.699Z,42.05
2023-02-17T17:10:52.486Z,41.42
2023-02-17T17:13:19.877Z,42.33
2023-02-17T17:15:47.297Z,41.35
2023-02-17T17:18:21.718Z,46.92
2023-02-17T17:20:49.448Z,54.50
2023-02-17T17:23:16.905Z,63.95
2023-02-17T17:25:46.749Z,75.43
2023-02-17T17:28:17.137Z,86.18
2023-02-17T17:30:45.002Z,88.70
2023-02-17T17:33:12.440Z,102.75
2023-02-17T17:35:39.913Z,103.07
2023-02-17T17:38:07.705Z,107.30
2023-02-17T17:40:48.434Z,117.30
2023-02-17T17:43:20.390Z,118.72
2023-02-17T17:45:49.465Z,131.60
2023-02-17T17:48:18.070Z,130.63
2023-02-17T17:50:45.956Z,138.98
2023-02-17T17:53:13.307Z,147.18
2023-02-17T17:55:40.801Z,146.52
2023-02-17T17:58:08.188Z,154.07
2023-02-17T18:00:35.577Z,142.88
2023-02-17T18:03:05.708Z,153.45
2023-02-17T18:05:33.058Z,148.63
2023-02-17T18:08:01.021Z,156.50
2023-02-17T18:10:28.375Z,150.98
2023-02-17T18:12:55.839Z,153.38
2023-02-17T18:15:23.173Z,160.73
2023-02-17T18:17:53.609Z,151.55
2023-02-17T18:20:21.188Z,156.27
2023-02-17T18:22:48.557Z,156.63
2023-02-17T18:25:16.087Z,157.40
2023-02-17T18:27:46.246Z,165.80
2023-02-17T18:30:17.864Z,156.80
2023-02-17T18:32:45.533Z,169.70
2023-02-17T18:35:14.014Z,168.75
2023-02-17T18:37:45.314Z,159.03
2023-02-17T18:40:15.035Z,158.70
2023-02-17T18:42:45.460Z,173.05
2023-02-17T18:45:13.986Z,166.63
2023-02-17T18:47:42.662Z,169.35
2023-02-17T18:50:11.353Z,166.57
2023-02-17T18:52:39.946Z,169.32
2023-02-17T18:55:08.504Z,171.88
2023-02-17T18:57:36.777Z,175.18
2023-02-17T19:00:05.968Z,177.82
2023-02-17T19:02:36.707Z,185.02
2023-02-17T19:05:05.552Z,178.45
2023-02-17T19:07:33.962Z,179.70
2023-02-17T19:10:01.640Z,184.50
2023-02-17T19:12:28.917Z,179.38
2023-02-17T19:15:17.270Z,181.70
2023-02-17T19:17:45.629Z,172.70
2023-02-17T19:20:13.364Z,180.05
2023-02-17T19:22:40.653Z,187.10
2023-02-17T19:25:08.435Z,179.13
2023-02-17T19:27:38.845Z,180.65
2023-02-17T19:30:10.371Z,182.55
2023-02-17T19:32:38.263Z,184.90
2023-02-17T19:35:05.975Z,181.30
2023-02-17T19:37:36.180Z,187.38
2023-02-17T19:40:04.138Z,183.45
2023-02-17T19:42:31.575Z,184.23
2023-02-17T19:44:58.949Z,188.95
2023-02-17T19:47:26.307Z,187.45
2023-02-17T19:49:53.679Z,192.35
2023-02-17T19:52:21.131Z,184.80
2023-02-17T19:54:50.473Z,188.15
2023-02-17T19:57:18.460Z,173.13
2023-02-17T19:59:45.996Z,170.68
2023-02-17T20:02:16.521Z,164.95
2023-02-17T20:04:44.663Z,163.98
2023-02-17T20:07:12.049Z,167.30
2023-02-17T20:09:39.442Z,179.77
2023-02-17T20:12:07.181Z,174.95
2023-02-17T20:14:34.605Z,174.63
2023-02-17T20:17:02.014Z,180.05
2023-02-17T20:19:29.415Z,178.68
2023-02-17T20:21:56.904Z,172.43
2023-02-17T20:24:24.333Z,175.48
2023-02-17T20:26:53.576Z,173.68
2023-02-17T20:29:21.524Z,185.13
2023-02-17T20:31:49.184Z,198.63
2023-02-17T20:34:43.295Z,200.20
2023-02-17T20:37:11.221Z,189.13
2023-02-17T20:39:40.142Z,188.98
2023-02-17T20:42:07.721Z,189.60
2023-02-17T20:44:35.489Z,198.45
2023-02-17T20:47:03.175Z,210.63
2023-02-17T20:49:30.493Z,203.10
2023-02-17T20:51:58.316Z,211.57
2023-02-17T20:54:26.178Z,202.63
2023-02-17T20:56:53.861Z,203.38
2023-02-17T20:59:21.286Z,196.27
2023-02-17T21:01:48.698Z,203.43
2023-02-17T21:04:17.294Z,205.13
2023-02-17T21:06:46.957Z,199.65
2023-02-17T21:09:17.333Z,213.15
2023-02-17T21:11:45.562Z,206.32
2023-02-17T21:14:13.301Z,207.13
2023-02-17T21:16:40.809Z,205.38
2023-02-17T21:19:08.429Z,203.35
2023-02-17T21:21:35.934Z,196.50
2023-02-17T21:24:04.210Z,197.43
2023-02-17T21:26:34.239Z,210.48
2023-02-17T21:29:01.764Z,205.20
2023-02-17T21:31:29.343Z,211.32
2023-02-17T21:33:59.075Z,195.15
2023-02-17T21:36:29.056Z,195.68
2023-02-17T21:38:57.578Z,202.40
2023-02-17T21:41:27.630Z,204.13
2023-02-17T21:44:13.927Z,197.68
2023-02-17T21:46:43.006Z,200.20
2023-02-17T21:49:10.772Z,204.50
2023-02-17T21:51:39.937Z,196.95
2023-02-17T21:54:07.930Z,205.52
2023-02-17T21:56:36.366Z,197.13
2023-02-17T21:59:04.808Z,197.65
2023-02-17T22:01:33.896Z,203.63
2023-02-17T22:04:02.514Z,205.00
2023-02-17T22:06:34.064Z,203.68
2023-02-17T22:09:02.533Z,203.63
2023-02-17T22:11:32.662Z,198.50
2023-02-17T22:14:02.374Z,201.30
2023-02-17T22:16:32.319Z,203.20
2023-02-17T22:19:00.073Z,202.75
2023-02-17T22:21:27.918Z,198.60
2023-02-17T22:23:56.669Z,201.95
2023-02-17T22:26:25.705Z,206.50
2023-02-17T22:28:53.973Z,200.73
2023-02-17T22:31:23.821Z,197.82
2023-02-17T22:33:51.487Z,205.73
2023-02-17T22:36:22.571Z,211.02
2023-02-17T22:38:51.099Z,204.23
2023-02-17T22:41:21.819Z,196.18
2023-02-17T22:43:49.727Z,202.25
2023-02-17T22:46:19.406Z,195.70
2023-02-17T22:48:48.726Z,196.57
2023-02-17T22:51:21.886Z,194.85
2023-02-17T22:53:49.585Z,196.88
2023-02-17T22:56:17.011Z,193.40
2023-02-17T22:58:44.464Z,190.20
2023-02-17T23:01:13.183Z,192.93
2023-02-17T23:03:41.420Z,188.02
2023-02-17T23:06:19.629Z,188.80
2023-02-17T23:08:48.894Z,189.35
2023-02-17T23:11:18.827Z,200.00
2023-02-17T23:13:46.385Z,187.50
2023-02-17T23:16:18.916Z,205.15
2023-02-17T23:18:46.248Z,189.57
2023-02-17T23:21:13.795Z,190.35
2023-02-17T23:23:41.186Z,196.77
2023-02-17T23:26:08.790Z,195.10
2023-02-17T23:28:36.333Z,205.17
2023-02-17T23:31:03.788Z,207.90
2023-02-17T23:33:31.996Z,201.98
2023-02-17T23:35:59.407Z,201.50
2023-02-17T23:38:26.740Z,195.02
2023-02-17T23:40:54.077Z,193.60
2023-02-17T23:43:21.715Z,198.13
2023-02-17T23:45:49.734Z,197.00
2023-02-17T23:48:17.179Z,187.60
2023-02-17T23:50:46.548Z,197.32
2023-02-17T23:53:15.399Z,194.68
2023-02-17T23:55:42.728Z,192.13
2023-02-17T23:58:10.056Z,207.13
